sensor_id;sensor_type;location;lat;lon;timestamp;pressure;altitude;pressure_sealevel;temperature
16956;BMP180;8594;52.052;8.354;2024-03-06T00:01:53;100738.00;;;10.30
16956;BMP180;8594;52.052;8.354;2024-03-06T00:04:20;100739.00;;;9.80
16956;BMP180;8594;52.052;8.354;2024-03-06T00:06:46;100744.00;;;10.10
16956;BMP180;8594;52.052;8.354;2024-03-06T00:09:13;100747.00;;;10.10
16956;BMP180;8594;52.052;8.354;2024-03-06T00:11:40;100751.00;;;9.80
16956;BMP180;8594;52.052;8.354;2024-03-06T00:14:08;100754.00;;;9.70
16956;BMP180;8594;52.052;8.354;2024-03-06T00:16:34;100752.00;;;10.10
16956;BMP180;8594;52.052;8.354;2024-03-06T00:19:01;100742.00;;;10.10
16956;BMP180;8594;52.052;8.354;2024-03-06T00:21:28;100753.00;;;10.00
16956;BMP180;8594;52.052;8.354;2024-03-06T00:23:55;100750.00;;;9.70
16956;BMP180;8594;52.052;8.354;2024-03-06T00:26:22;100752.00;;;9.50
16956;BMP180;8594;52.052;8.354;2024-03-06T00:28:48;100751.00;;;9.90
16956;BMP180;8594;52.052;8.354;2024-03-06T00:31:16;100759.00;;;9.60
16956;BMP180;8594;52.052;8.354;2024-03-06T00:33:43;100754.00;;;9.80
16956;BMP180;8594;52.052;8.354;2024-03-06T00:36:10;100751.00;;;9.60
16956;BMP180;8594;52.052;8.354;2024-03-06T00:38:37;100763.00;;;9.80
16956;BMP180;8594;52.052;8.354;2024-03-06T00:41:04;100769.00;;;9.80
16956;BMP180;8594;52.052;8.354;2024-03-06T00:43:30;100762.00;;;9.90
16956;BMP180;8594;52.052;8.354;2024-03-06T00:45:57;100764.00;;;10.00
16956;BMP180;8594;52.052;8.354;2024-03-06T00:48:26;100770.00;;;10.10
16956;BMP180;8594;52.052;8.354;2024-03-06T00:50:53;100776.00;;;9.70
16956;BMP180;8594;52.052;8.354;2024-03-06T00:53:19;100774.00;;;9.60
16956;BMP180;8594;52.052;8.354;2024-03-06T00:55:46;100776.00;;;9.50
16956;BMP180;8594;52.052;8.354;2024-03-06T00:58:13;100777.00;;;9.90
16956;BMP180;8594;52.052;8.354;2024-03-06T01:00:40;100782.00;;;9.70
16956;BMP180;8594;52.052;8.354;2024-03-06T01:03:06;100776.00;;;9.70
16956;BMP180;8594;52.052;8.354;2024-03-06T01:05:35;100777.00;;;9.70
16956;BMP180;8594;52.052;8.354;2024-03-06T01:08:01;100786.00;;;9.90
16956;BMP180;8594;52.052;8.354;2024-03-06T01:10:28;100783.00;;;9.90
16956;BMP180;8594;52.052;8.354;2024-03-06T01:12:55;100786.00;;;9.70
16956;BMP180;8594;52.052;8.354;2024-03-06T01:15:21;100789.00;;;10.00
16956;BMP180;8594;52.052;8.354;2024-03-06T01:17:48;100794.00;;;9.80
16956;BMP180;8594;52.052;8.354;2024-03-06T01:20:15;100800.00;;;9.90
16956;BMP180;8594;52.052;8.354;2024-03-06T01:22:43;100802.00;;;9.90
16956;BMP180;8594;52.052;8.354;2024-03-06T01:25:11;100810.00;;;10.30
16956;BMP180;8594;52.052;8.354;2024-03-06T01:27:38;100806.00;;;10.10
16956;BMP180;8594;52.052;8.354;2024-03-06T01:30:06;100808.00;;;9.90
16956;BMP180;8594;52.052;8.354;2024-03-06T01:32:33;100811.00;;;10.20
16956;BMP180;8594;52.052;8.354;2024-03-06T01:35:00;100811.00;;;10.50
16956;BMP180;8594;52.052;8.354;2024-03-06T01:37:26;100806.00;;;10.30
16956;BMP180;8594;52.052;8.354;2024-03-06T01:39:54;100808.00;;;9.90
16956;BMP180;8594;52.052;8.354;2024-03-06T01:42:21;100815.00;;;10.10
16956;BMP180;8594;52.052;8.354;2024-03-06T01:44:48;100818.00;;;10.40
16956;BMP180;8594;52.052;8.354;2024-03-06T01:47:15;100818.00;;;10.60
16956;BMP180;8594;52.052;8.354;2024-03-06T01:49:42;100823.00;;;10.60
16956;BMP180;8594;52.052;8.354;2024-03-06T01:52:12;100827.00;;;10.40
16956;BMP180;8594;52.052;8.354;2024-03-06T01:54:39;100831.00;;;10.60
16956;BMP180;8594;52.052;8.354;2024-03-06T01:57:10;100838.00;;;10.40
16956;BMP180;8594;52.052;8.354;2024-03-06T01:59:39;100836.00;;;10.50
16956;BMP180;8594;52.052;8.354;2024-03-06T02:02:06;100827.00;;;10.70
16956;BMP180;8594;52.052;8.354;2024-03-06T02:04:34;100836.00;;;10.90
16956;BMP180;8594;52.052;8.354;2024-03-06T02:07:02;100834.00;;;10.90
16956;BMP180;8594;52.052;8.354;2024-03-06T02:09:29;100831.00;;;11.00
16956;BMP180;8594;52.052;8.354;2024-03-06T02:11:55;100834.00;;;11.10
16956;BMP180;8594;52.052;8.354;2024-03-06T02:14:23;100835.00;;;11.20
16956;BMP180;8594;52.052;8.354;2024-03-06T02:16:50;100835.00;;;11.20
16956;BMP180;8594;52.052;8.354;2024-03-06T02:19:17;100844.00;;;10.70
16956;BMP180;8594;52.052;8.354;2024-03-06T02:21:45;100844.00;;;11.00
16956;BMP180;8594;52.052;8.354;2024-03-06T02:24:12;100848.00;;;10.90
16956;BMP180;8594;52.052;8.354;2024-03-06T02:26:39;100844.00;;;11.10
16956;BMP180;8594;52.052;8.354;2024-03-06T02:29:08;100848.00;;;11.10
16956;BMP180;8594;52.052;8.354;2024-03-06T02:31:35;100843.00;;;11.00
16956;BMP180;8594;52.052;8.354;2024-03-06T02:34:02;100844.00;;;10.90
16956;BMP180;8594;52.052;8.354;2024-03-06T02:36:31;100844.00;;;10.80
16956;BMP180;8594;52.052;8.354;2024-03-06T02:39:00;100853.00;;;10.80
16956;BMP180;8594;52.052;8.354;2024-03-06T02:41:34;100859.00;;;10.60
16956;BMP180;8594;52.052;8.354;2024-03-06T02:44:01;100856.00;;;10.50
16956;BMP180;8594;52.052;8.354;2024-03-06T02:46:29;100854.00;;;10.80
16956;BMP180;8594;52.052;8.354;2024-03-06T02:48:56;100855.00;;;10.90
16956;BMP180;8594;52.052;8.354;2024-03-06T02:51:22;100855.00;;;10.90
16956;BMP180;8594;52.052;8.354;2024-03-06T02:53:49;100851.00;;;11.00
16956;BMP180;8594;52.052;8.354;2024-03-06T02:56:20;100843.00;;;10.90
16956;BMP180;8594;52.052;8.354;2024-03-06T02:58:46;100844.00;;;10.90
16956;BMP180;8594;52.052;8.354;2024-03-06T03:01:14;100834.00;;;11.00
16956;BMP180;8594;52.052;8.354;2024-03-06T03:03:41;100828.00;;;10.90
16956;BMP180;8594;52.052;8.354;2024-03-06T03:06:10;100839.00;;;10.90
16956;BMP180;8594;52.052;8.354;2024-03-06T03:08:38;100846.00;;;10.90
16956;BMP180;8594;52.052;8.354;2024-03-06T03:11:05;100849.00;;;11.00
16956;BMP180;8594;52.052;8.354;2024-03-06T03:13:33;100846.00;;;10.90
16956;BMP180;8594;52.052;8.354;2024-03-06T03:16:00;100848.00;;;11.00
16956;BMP180;8594;52.052;8.354;2024-03-06T03:18:28;100855.00;;;10.90
16956;BMP180;8594;52.052;8.354;2024-03-06T03:20:55;100852.00;;;10.20
16956;BMP180;8594;52.052;8.354;2024-03-06T03:23:21;100855.00;;;10.10
16956;BMP180;8594;52.052;8.354;2024-03-06T03:25:48;100868.00;;;10.30
16956;BMP180;8594;52.052;8.354;2024-03-06T03:28:15;100869.00;;;10.40
16956;BMP180;8594;52.052;8.354;2024-03-06T03:30:44;100871.00;;;10.90
16956;BMP180;8594;52.052;8.354;2024-03-06T03:33:11;100873.00;;;11.00
16956;BMP180;8594;52.052;8.354;2024-03-06T03:35:38;100873.00;;;10.80
16956;BMP180;8594;52.052;8.354;2024-03-06T03:38:04;100880.00;;;10.80
16956;BMP180;8594;52.052;8.354;2024-03-06T03:40:31;100877.00;;;10.70
16956;BMP180;8594;52.052;8.354;2024-03-06T03:42:58;100880.00;;;10.70
16956;BMP180;8594;52.052;8.354;2024-03-06T03:45:32;100878.00;;;10.80
16956;BMP180;8594;52.052;8.354;2024-03-06T03:48:00;100885.00;;;11.00
16956;BMP180;8594;52.052;8.354;2024-03-06T03:50:28;100877.00;;;10.50
16956;BMP180;8594;52.052;8.354;2024-03-06T03:52:55;100878.00;;;10.30
16956;BMP180;8594;52.052;8.354;2024-03-06T03:55:23;100881.00;;;10.50
16956;BMP180;8594;52.052;8.354;2024-03-06T03:57:51;100885.00;;;10.40
16956;BMP180;8594;52.052;8.354;2024-03-06T04:00:18;100878.00;;;10.40
16956;BMP180;8594;52.052;8.354;2024-03-06T04:02:45;100881.00;;;10.40
16956;BMP180;8594;52.052;8.354;2024-03-06T04:05:13;100880.00;;;10.50
16956;BMP180;8594;52.052;8.354;2024-03-06T04:07:40;100882.00;;;10.60
16956;BMP180;8594;52.052;8.354;2024-03-06T04:10:08;100892.00;;;11.00
16956;BMP180;8594;52.052;8.354;2024-03-06T04:12:37;100888.00;;;11.00
16956;BMP180;8594;52.052;8.354;2024-03-06T04:15:05;100887.00;;;10.90
16956;BMP180;8594;52.052;8.354;2024-03-06T04:17:34;100887.00;;;10.90
16956;BMP180;8594;52.052;8.354;2024-03-06T04:20:02;100890.00;;;10.80
16956;BMP180;8594;52.052;8.354;2024-03-06T04:22:30;100898.00;;;10.50
16956;BMP180;8594;52.052;8.354;2024-03-06T04:24:57;100899.00;;;10.70
16956;BMP180;8594;52.052;8.354;2024-03-06T04:27:25;100903.00;;;10.50
16956;BMP180;8594;52.052;8.354;2024-03-06T04:29:52;100916.00;;;10.50
16956;BMP180;8594;52.052;8.354;2024-03-06T04:32:19;100911.00;;;10.30
16956;BMP180;8594;52.052;8.354;2024-03-06T04:34:45;100916.00;;;10.50
16956;BMP180;8594;52.052;8.354;2024-03-06T04:37:12;100914.00;;;10.40
16956;BMP180;8594;52.052;8.354;2024-03-06T04:39:41;100917.00;;;10.30
16956;BMP180;8594;52.052;8.354;2024-03-06T04:42:07;100922.00;;;10.50
16956;BMP180;8594;52.052;8.354;2024-03-06T04:44:34;100918.00;;;10.60
16956;BMP180;8594;52.052;8.354;2024-03-06T04:47:01;100924.00;;;10.50
16956;BMP180;8594;52.052;8.354;2024-03-06T04:49:28;100931.00;;;10.50
16956;BMP180;8594;52.052;8.354;2024-03-06T04:51:54;100935.00;;;10.40
16956;BMP180;8594;52.052;8.354;2024-03-06T04:54:21;100935.00;;;10.20
16956;BMP180;8594;52.052;8.354;2024-03-06T04:56:49;100934.00;;;10.00
16956;BMP180;8594;52.052;8.354;2024-03-06T04:59:16;100939.00;;;10.20
16956;BMP180;8594;52.052;8.354;2024-03-06T05:01:42;100933.00;;;9.90
16956;BMP180;8594;52.052;8.354;2024-03-06T05:04:10;100944.00;;;9.80
16956;BMP180;8594;52.052;8.354;2024-03-06T05:06:37;100939.00;;;9.80
16956;BMP180;8594;52.052;8.354;2024-03-06T05:09:04;100942.00;;;10.00
16956;BMP180;8594;52.052;8.354;2024-03-06T05:11:31;100948.00;;;10.00
16956;BMP180;8594;52.052;8.354;2024-03-06T05:14:00;100941.00;;;10.20
16956;BMP180;8594;52.052;8.354;2024-03-06T05:16:26;100943.00;;;10.00
16956;BMP180;8594;52.052;8.354;2024-03-06T05:18:53;100946.00;;;9.70
16956;BMP180;8594;52.052;8.354;2024-03-06T05:21:21;100946.00;;;9.80
16956;BMP180;8594;52.052;8.354;2024-03-06T05:23:48;100949.00;;;9.60
16956;BMP180;8594;52.052;8.354;2024-03-06T05:26:15;100947.00;;;9.30
16956;BMP180;8594;52.052;8.354;2024-03-06T05:28:42;100965.00;;;9.40
16956;BMP180;8594;52.052;8.354;2024-03-06T05:31:18;100956.00;;;9.70
16956;BMP180;8594;52.052;8.354;2024-03-06T05:33:47;100967.00;;;9.50
16956;BMP180;8594;52.052;8.354;2024-03-06T05:36:14;100962.00;;;9.30
16956;BMP180;8594;52.052;8.354;2024-03-06T05:38:43;100961.00;;;9.70
16956;BMP180;8594;52.052;8.354;2024-03-06T05:41:09;100963.00;;;9.90
16956;BMP180;8594;52.052;8.354;2024-03-06T05:43:36;100970.00;;;9.70
16956;BMP180;8594;52.052;8.354;2024-03-06T05:46:03;100983.00;;;9.90
16956;BMP180;8594;52.052;8.354;2024-03-06T05:48:31;100980.00;;;10.00
16956;BMP180;8594;52.052;8.354;2024-03-06T05:50:58;100987.00;;;10.20
16956;BMP180;8594;52.052;8.354;2024-03-06T05:53:25;100985.00;;;10.10
16956;BMP180;8594;52.052;8.354;2024-03-06T05:55:52;100991.00;;;10.20
16956;BMP180;8594;52.052;8.354;2024-03-06T05:58:20;100997.00;;;9.90
16956;BMP180;8594;52.052;8.354;2024-03-06T06:00:47;100997.00;;;9.90
16956;BMP180;8594;52.052;8.354;2024-03-06T06:03:14;100995.00;;;10.10
16956;BMP180;8594;52.052;8.354;2024-03-06T06:05:43;101002.00;;;10.20
16956;BMP180;8594;52.052;8.354;2024-03-06T06:08:09;101007.00;;;10.20
16956;BMP180;8594;52.052;8.354;2024-03-06T06:10:36;101015.00;;;10.10
16956;BMP180;8594;52.052;8.354;2024-03-06T06:13:03;101022.00;;;10.20
16956;BMP180;8594;52.052;8.354;2024-03-06T06:15:31;101017.00;;;10.10
16956;BMP180;8594;52.052;8.354;2024-03-06T06:17:57;101023.00;;;10.20
16956;BMP180;8594;52.052;8.354;2024-03-06T06:20:24;101029.00;;;10.30
16956;BMP180;8594;52.052;8.354;2024-03-06T06:22:53;101033.00;;;10.50
16956;BMP180;8594;52.052;8.354;2024-03-06T06:25:19;101035.00;;;10.70
16956;BMP180;8594;52.052;8.354;2024-03-06T06:27:46;101026.00;;;10.50
16956;BMP180;8594;52.052;8.354;2024-03-06T06:30:15;101035.00;;;10.50
16956;BMP180;8594;52.052;8.354;2024-03-06T06:32:42;101039.00;;;10.50
16956;BMP180;8594;52.052;8.354;2024-03-06T06:35:10;101043.00;;;10.40
16956;BMP180;8594;52.052;8.354;2024-03-06T06:37:39;101051.00;;;10.60
16956;BMP180;8594;52.052;8.354;2024-03-06T06:40:09;101055.00;;;10.60
16956;BMP180;8594;52.052;8.354;2024-03-06T06:42:37;101056.00;;;10.50
16956;BMP180;8594;52.052;8.354;2024-03-06T06:45:05;101058.00;;;10.50
16956;BMP180;8594;52.052;8.354;2024-03-06T06:47:33;101063.00;;;10.50
16956;BMP180;8594;52.052;8.354;2024-03-06T06:49:59;101073.00;;;10.70
16956;BMP180;8594;52.052;8.354;2024-03-06T06:52:30;101076.00;;;10.70
16956;BMP180;8594;52.052;8.354;2024-03-06T06:54:59;101085.00;;;10.80
16956;BMP180;8594;52.052;8.354;2024-03-06T06:57:27;101079.00;;;10.80
16956;BMP180;8594;52.052;8.354;2024-03-06T06:59:54;101081.00;;;10.70
16956;BMP180;8594;52.052;8.354;2024-03-06T07:02:20;101085.00;;;10.70
16956;BMP180;8594;52.052;8.354;2024-03-06T07:04:47;101086.00;;;10.80
16956;BMP180;8594;52.052;8.354;2024-03-06T07:07:14;101083.00;;;10.70
16956;BMP180;8594;52.052;8.354;2024-03-06T07:09:42;101089.00;;;10.30
16956;BMP180;8594;52.052;8.354;2024-03-06T07:12:09;101089.00;;;10.40
16956;BMP180;8594;52.052;8.354;2024-03-06T07:14:37;101093.00;;;10.20
16956;BMP180;8594;52.052;8.354;2024-03-06T07:17:04;101102.00;;;10.50
16956;BMP180;8594;52.052;8.354;2024-03-06T07:19:30;101101.00;;;10.20
16956;BMP180;8594;52.052;8.354;2024-03-06T07:21:57;101102.00;;;10.40
16956;BMP180;8594;52.052;8.354;2024-03-06T07:24:24;101108.00;;;10.30
16956;BMP180;8594;52.052;8.354;2024-03-06T07:26:51;101100.00;;;10.40
16956;BMP180;8594;52.052;8.354;2024-03-06T07:29:17;101119.00;;;10.20
16956;BMP180;8594;52.052;8.354;2024-03-06T07:31:45;101117.00;;;10.40
16956;BMP180;8594;52.052;8.354;2024-03-06T07:34:13;101115.00;;;10.50
16956;BMP180;8594;52.052;8.354;2024-03-06T07:36:40;101123.00;;;10.70
16956;BMP180;8594;52.052;8.354;2024-03-06T07:39:07;101128.00;;;10.80
16956;BMP180;8594;52.052;8.354;2024-03-06T07:41:33;101127.00;;;10.80
16956;BMP180;8594;52.052;8.354;2024-03-06T07:44:00;101125.00;;;10.70
16956;BMP180;8594;52.052;8.354;2024-03-06T07:46:28;101131.00;;;10.80
16956;BMP180;8594;52.052;8.354;2024-03-06T07:48:56;101136.00;;;10.90
16956;BMP180;8594;52.052;8.354;2024-03-06T07:51:23;101144.00;;;10.80
16956;BMP180;8594;52.052;8.354;2024-03-06T07:53:50;101143.00;;;10.90
16956;BMP180;8594;52.052;8.354;2024-03-06T07:56:18;101141.00;;;10.90
16956;BMP180;8594;52.052;8.354;2024-03-06T07:58:44;101141.00;;;10.70
16956;BMP180;8594;52.052;8.354;2024-03-06T08:01:11;101155.00;;;10.90
16956;BMP180;8594;52.052;8.354;2024-03-06T08:03:39;101150.00;;;10.80
16956;BMP180;8594;52.052;8.354;2024-03-06T08:06:08;101155.00;;;10.60
16956;BMP180;8594;52.052;8.354;2024-03-06T08:08:35;101157.00;;;10.50
16956;BMP180;8594;52.052;8.354;2024-03-06T08:11:02;101158.00;;;10.70
16956;BMP180;8594;52.052;8.354;2024-03-06T08:13:29;101159.00;;;11.20
16956;BMP180;8594;52.052;8.354;2024-03-06T08:15:55;101164.00;;;11.30
16956;BMP180;8594;52.052;8.354;2024-03-06T08:18:22;101161.00;;;11.40
16956;BMP180;8594;52.052;8.354;2024-03-06T08:20:49;101164.00;;;11.50
16956;BMP180;8594;52.052;8.354;2024-03-06T08:23:17;101166.00;;;11.30
16956;BMP180;8594;52.052;8.354;2024-03-06T08:25:44;101169.00;;;11.00
16956;BMP180;8594;52.052;8.354;2024-03-06T08:28:11;101180.00;;;11.50
16956;BMP180;8594;52.052;8.354;2024-03-06T08:30:37;101180.00;;;11.40
16956;BMP180;8594;52.052;8.354;2024-03-06T08:33:04;101186.00;;;11.30
16956;BMP180;8594;52.052;8.354;2024-03-06T08:35:31;101186.00;;;11.40
16956;BMP180;8594;52.052;8.354;2024-03-06T08:37:58;101190.00;;;11.50
16956;BMP180;8594;52.052;8.354;2024-03-06T08:40:26;101191.00;;;11.40
16956;BMP180;8594;52.052;8.354;2024-03-06T08:42:54;101198.00;;;11.60
16956;BMP180;8594;52.052;8.354;2024-03-06T08:45:21;101195.00;;;11.30
16956;BMP180;8594;52.052;8.354;2024-03-06T08:47:48;101199.00;;;11.60
16956;BMP180;8594;52.052;8.354;2024-03-06T08:50:16;101202.00;;;11.60
16956;BMP180;8594;52.052;8.354;2024-03-06T08:52:43;101205.00;;;11.80
16956;BMP180;8594;52.052;8.354;2024-03-06T08:55:10;101213.00;;;11.90
16956;BMP180;8594;52.052;8.354;2024-03-06T08:57:39;101212.00;;;12.00
16956;BMP180;8594;52.052;8.354;2024-03-06T09:00:08;101219.00;;;11.90
16956;BMP180;8594;52.052;8.354;2024-03-06T09:02:36;101208.00;;;11.60
16956;BMP180;8594;52.052;8.354;2024-03-06T09:05:05;101214.00;;;11.60
16956;BMP180;8594;52.052;8.354;2024-03-06T09:07:32;101212.00;;;11.60
16956;BMP180;8594;52.052;8.354;2024-03-06T09:10:04;101229.00;;;11.20
16956;BMP180;8594;52.052;8.354;2024-03-06T09:12:32;101235.00;;;11.40
16956;BMP180;8594;52.052;8.354;2024-03-06T09:15:01;101228.00;;;11.70
16956;BMP180;8594;52.052;8.354;2024-03-06T09:17:28;101237.00;;;11.70
16956;BMP180;8594;52.052;8.354;2024-03-06T09:19:55;101234.00;;;11.70
16956;BMP180;8594;52.052;8.354;2024-03-06T09:22:22;101237.00;;;11.90
16956;BMP180;8594;52.052;8.354;2024-03-06T09:24:49;101245.00;;;12.00
16956;BMP180;8594;52.052;8.354;2024-03-06T09:27:16;101257.00;;;12.00
16956;BMP180;8594;52.052;8.354;2024-03-06T09:29:42;101251.00;;;11.80
16956;BMP180;8594;52.052;8.354;2024-03-06T09:32:11;101254.00;;;11.90
16956;BMP180;8594;52.052;8.354;2024-03-06T09:34:41;101253.00;;;11.90
16956;BMP180;8594;52.052;8.354;2024-03-06T09:37:08;101253.00;;;11.90
16956;BMP180;8594;52.052;8.354;2024-03-06T09:39:36;101259.00;;;11.80
16956;BMP180;8594;52.052;8.354;2024-03-06T09:42:03;101252.00;;;11.50
16956;BMP180;8594;52.052;8.354;2024-03-06T09:44:30;101247.00;;;11.40
16956;BMP180;8594;52.052;8.354;2024-03-06T09:46:59;101252.00;;;11.30
16956;BMP180;8594;52.052;8.354;2024-03-06T09:49:30;101256.00;;;11.20
16956;BMP180;8594;52.052;8.354;2024-03-06T09:51:59;101263.00;;;11.20
16956;BMP180;8594;52.052;8.354;2024-03-06T09:54:26;101255.00;;;11.40
16956;BMP180;8594;52.052;8.354;2024-03-06T09:56:54;101265.00;;;11.70
16956;BMP180;8594;52.052;8.354;2024-03-06T09:59:23;101265.00;;;11.70
16956;BMP180;8594;52.052;8.354;2024-03-06T10:01:53;101264.00;;;12.00
16956;BMP180;8594;52.052;8.354;2024-03-06T10:04:21;101271.00;;;11.70
16956;BMP180;8594;52.052;8.354;2024-03-06T10:06:50;101270.00;;;11.90
16956;BMP180;8594;52.052;8.354;2024-03-06T10:09:18;101281.00;;;12.10
16956;BMP180;8594;52.052;8.354;2024-03-06T10:11:45;101283.00;;;11.90
16956;BMP180;8594;52.052;8.354;2024-03-06T10:14:13;101281.00;;;11.90
16956;BMP180;8594;52.052;8.354;2024-03-06T10:16:53;101273.00;;;11.90
16956;BMP180;8594;52.052;8.354;2024-03-06T10:19:22;101280.00;;;12.00
16956;BMP180;8594;52.052;8.354;2024-03-06T10:21:50;101279.00;;;12.00
16956;BMP180;8594;52.052;8.354;2024-03-06T10:24:19;101283.00;;;11.80
16956;BMP180;8594;52.052;8.354;2024-03-06T10:26:47;101279.00;;;11.50
16956;BMP180;8594;52.052;8.354;2024-03-06T10:29:16;101282.00;;;11.40
16956;BMP180;8594;52.052;8.354;2024-03-06T10:31:52;101287.00;;;11.30
16956;BMP180;8594;52.052;8.354;2024-03-06T10:34:20;101288.00;;;11.60
16956;BMP180;8594;52.052;8.354;2024-03-06T10:36:54;101294.00;;;11.90
16956;BMP180;8594;52.052;8.354;2024-03-06T10:39:22;101291.00;;;11.90
16956;BMP180;8594;52.052;8.354;2024-03-06T10:41:53;101295.00;;;12.10
16956;BMP180;8594;52.052;8.354;2024-03-06T10:44:22;101295.00;;;11.40
16956;BMP180;8594;52.052;8.354;2024-03-06T10:46:57;101295.00;;;11.60
16956;BMP180;8594;52.052;8.354;2024-03-06T10:49:26;101298.00;;;11.50
16956;BMP180;8594;52.052;8.354;2024-03-06T10:51:58;101300.00;;;11.30
16956;BMP180;8594;52.052;8.354;2024-03-06T10:54:27;101296.00;;;11.30
16956;BMP180;8594;52.052;8.354;2024-03-06T10:56:56;101297.00;;;11.20
16956;BMP180;8594;52.052;8.354;2024-03-06T10:59:26;101304.00;;;11.30
16956;BMP180;8594;52.052;8.354;2024-03-06T11:01:56;101312.00;;;11.40
16956;BMP180;8594;52.052;8.354;2024-03-06T11:04:27;101309.00;;;11.60
16956;BMP180;8594;52.052;8.354;2024-03-06T11:06:57;101318.00;;;11.60
16956;BMP180;8594;52.052;8.354;2024-03-06T11:09:25;101321.00;;;11.70
16956;BMP180;8594;52.052;8.354;2024-03-06T11:11:53;101322.00;;;11.50
16956;BMP180;8594;52.052;8.354;2024-03-06T11:14:22;101316.00;;;11.40
16956;BMP180;8594;52.052;8.354;2024-03-06T11:16:58;101311.00;;;11.00
16956;BMP180;8594;52.052;8.354;2024-03-06T11:19:26;101324.00;;;11.50
16956;BMP180;8594;52.052;8.354;2024-03-06T11:21:53;101318.00;;;11.90
16956;BMP180;8594;52.052;8.354;2024-03-06T11:24:22;101316.00;;;11.60
16956;BMP180;8594;52.052;8.354;2024-03-06T11:26:55;101323.00;;;11.60
16956;BMP180;8594;52.052;8.354;2024-03-06T11:32:28;101327.00;;;12.00
16956;BMP180;8594;52.052;8.354;2024-03-06T11:34:55;101328.00;;;11.70
16956;BMP180;8594;52.052;8.354;2024-03-06T11:37:21;101336.00;;;11.90
16956;BMP180;8594;52.052;8.354;2024-03-06T11:39:49;101335.00;;;11.90
16956;BMP180;8594;52.052;8.354;2024-03-06T11:42:17;101334.00;;;11.80
16956;BMP180;8594;52.052;8.354;2024-03-06T11:44:54;101332.00;;;12.00
16956;BMP180;8594;52.052;8.354;2024-03-06T11:47:22;101332.00;;;12.00
16956;BMP180;8594;52.052;8.354;2024-03-06T11:49:50;101340.00;;;11.70
16956;BMP180;8594;52.052;8.354;2024-03-06T11:52:16;101337.00;;;11.50
16956;BMP180;8594;52.052;8.354;2024-03-06T11:54:43;101346.00;;;11.80
16956;BMP180;8594;52.052;8.354;2024-03-06T11:57:11;101340.00;;;11.60
16956;BMP180;8594;52.052;8.354;2024-03-06T11:59:41;101343.00;;;11.60
16956;BMP180;8594;52.052;8.354;2024-03-06T12:02:09;101335.00;;;11.60
16956;BMP180;8594;52.052;8.354;2024-03-06T12:04:36;101345.00;;;11.50
16956;BMP180;8594;52.052;8.354;2024-03-06T12:07:04;101343.00;;;11.60
16956;BMP180;8594;52.052;8.354;2024-03-06T12:09:33;101337.00;;;12.00
16956;BMP180;8594;52.052;8.354;2024-03-06T12:12:00;101346.00;;;11.60
16956;BMP180;8594;52.052;8.354;2024-03-06T12:14:29;101346.00;;;11.80
16956;BMP180;8594;52.052;8.354;2024-03-06T12:16:56;101357.00;;;12.10
16956;BMP180;8594;52.052;8.354;2024-03-06T12:19:26;101351.00;;;12.10
16956;BMP180;8594;52.052;8.354;2024-03-06T12:21:53;101360.00;;;11.80
16956;BMP180;8594;52.052;8.354;2024-03-06T12:24:20;101346.00;;;12.00
16956;BMP180;8594;52.052;8.354;2024-03-06T12:26:59;101349.00;;;11.60
16956;BMP180;8594;52.052;8.354;2024-03-06T12:29:30;101349.00;;;11.70
16956;BMP180;8594;52.052;8.354;2024-03-06T12:31:57;101360.00;;;11.80
16956;BMP180;8594;52.052;8.354;2024-03-06T12:34:24;101352.00;;;11.80
16956;BMP180;8594;52.052;8.354;2024-03-06T12:36:51;101350.00;;;11.90
16956;BMP180;8594;52.052;8.354;2024-03-06T12:39:18;101352.00;;;11.90
16956;BMP180;8594;52.052;8.354;2024-03-06T12:41:48;101355.00;;;12.10
16956;BMP180;8594;52.052;8.354;2024-03-06T12:44:15;101346.00;;;12.30
16956;BMP180;8594;52.052;8.354;2024-03-06T12:46:44;101351.00;;;12.20
16956;BMP180;8594;52.052;8.354;2024-03-06T12:49:10;101351.00;;;12.30
16956;BMP180;8594;52.052;8.354;2024-03-06T12:51:37;101358.00;;;12.30
16956;BMP180;8594;52.052;8.354;2024-03-06T12:54:04;101351.00;;;12.10
16956;BMP180;8594;52.052;8.354;2024-03-06T12:56:31;101357.00;;;12.00
16956;BMP180;8594;52.052;8.354;2024-03-06T12:58:57;101359.00;;;12.20
16956;BMP180;8594;52.052;8.354;2024-03-06T13:01:24;101357.00;;;12.60
16956;BMP180;8594;52.052;8.354;2024-03-06T13:03:52;101345.00;;;12.40
16956;BMP180;8594;52.052;8.354;2024-03-06T13:06:19;101348.00;;;12.70
16956;BMP180;8594;52.052;8.354;2024-03-06T13:08:47;101351.00;;;12.90
16956;BMP180;8594;52.052;8.354;2024-03-06T13:11:13;101349.00;;;12.90
16956;BMP180;8594;52.052;8.354;2024-03-06T13:13:40;101352.00;;;13.20
16956;BMP180;8594;52.052;8.354;2024-03-06T13:16:07;101347.00;;;13.20
16956;BMP180;8594;52.052;8.354;2024-03-06T13:18:36;101348.00;;;13.40
16956;BMP180;8594;52.052;8.354;2024-03-06T13:21:04;101355.00;;;13.60
16956;BMP180;8594;52.052;8.354;2024-03-06T13:23:31;101360.00;;;13.60
16956;BMP180;8594;52.052;8.354;2024-03-06T13:25:58;101361.00;;;13.70
16956;BMP180;8594;52.052;8.354;2024-03-06T13:28:26;101359.00;;;13.40
16956;BMP180;8594;52.052;8.354;2024-03-06T13:30:52;101364.00;;;13.50
16956;BMP180;8594;52.052;8.354;2024-03-06T13:33:19;101356.00;;;13.20
16956;BMP180;8594;52.052;8.354;2024-03-06T13:35:46;101360.00;;;12.90
16956;BMP180;8594;52.052;8.354;2024-03-06T13:38:14;101365.00;;;13.00
16956;BMP180;8594;52.052;8.354;2024-03-06T13:40:41;101359.00;;;12.90
16956;BMP180;8594;52.052;8.354;2024-03-06T13:43:08;101372.00;;;13.60
16956;BMP180;8594;52.052;8.354;2024-03-06T13:45:35;101372.00;;;13.10
16956;BMP180;8594;52.052;8.354;2024-03-06T13:48:04;101378.00;;;13.20
16956;BMP180;8594;52.052;8.354;2024-03-06T13:50:40;101375.00;;;13.50
16956;BMP180;8594;52.052;8.354;2024-03-06T13:53:06;101381.00;;;13.50
16956;BMP180;8594;52.052;8.354;2024-03-06T13:55:34;101383.00;;;13.10
16956;BMP180;8594;52.052;8.354;2024-03-06T13:58:01;101382.00;;;13.20
16956;BMP180;8594;52.052;8.354;2024-03-06T14:00:28;101385.00;;;13.40
16956;BMP180;8594;52.052;8.354;2024-03-06T14:02:55;101376.00;;;13.40
16956;BMP180;8594;52.052;8.354;2024-03-06T14:05:23;101370.00;;;13.10
16956;BMP180;8594;52.052;8.354;2024-03-06T14:07:51;101376.00;;;13.30
16956;BMP180;8594;52.052;8.354;2024-03-06T14:10:18;101376.00;;;13.20
16956;BMP180;8594;52.052;8.354;2024-03-06T14:12:48;101370.00;;;12.80
16956;BMP180;8594;52.052;8.354;2024-03-06T14:15:17;101376.00;;;13.70
16956;BMP180;8594;52.052;8.354;2024-03-06T14:17:45;101373.00;;;13.20